Time;durP1;ratioP1;P1;durP2;ratioP2;P2;SDS_P1;SDS_P2;PMS_P1;PMS_P2;Temp;Humidity;BMP_temperature;BMP_pressure;BME280_temperature;BME280_humidity;BME280_pressure;Samples;Min_cycle;Max_cycle;Signal;HPM_P1;HPM_P2
2021/04/19 00:00:58;;;;;;;6.32;2.35;;;5.60;83.10;;;;;;4332484;32;20082;-59
2021/04/19 00:03:24;;;;;;;3.37;1.83;;;5.50;81.20;;;;;;4356623;32;20081;-59
2021/04/19 00:05:50;;;;;;;3.97;2.05;;;5.60;81.20;;;;;;4365452;32;20130;-59
2021/04/19 00:08:16;;;;;;;3.58;2.20;;;5.60;79.60;;;;;;4337275;32;20086;-60
2021/04/19 00:10:43;;;;;;;5.57;1.92;;;5.60;79.50;;;;;;4336998;32;20167;-59
2021/04/19 00:13:09;;;;;;;5.37;1.90;;;5.60;80.80;;;;;;4331286;32;20078;-60
2021/04/19 00:15:36;;;;;;;4.30;1.95;;;5.50;79.90;;;;;;4316848;32;20504;-60
2021/04/19 00:18:02;;;;;;;3.75;1.92;;;5.50;80.20;;;;;;4314340;32;20465;-60
2021/04/19 00:20:28;;;;;;;3.62;2.15;;;5.40;79.70;;;;;;4326373;32;20606;-59
2021/04/19 00:22:55;;;;;;;3.65;1.62;;;5.30;79.70;;;;;;4348856;32;20086;-59
2021/04/19 00:25:22;;;;;;;3.20;1.75;;;5.40;79.20;;;;;;4327135;32;20074;-59
2021/04/19 00:27:48;;;;;;;2.55;1.90;;;5.30;78.90;;;;;;4339544;32;20074;-60
2021/04/19 00:30:15;;;;;;;3.70;1.77;;;5.30;78.70;;;;;;4348145;32;20138;-60
2021/04/19 00:32:41;;;;;;;3.05;1.83;;;5.20;79.60;;;;;;4335493;32;20073;-60
2021/04/19 00:35:08;;;;;;;2.62;1.83;;;5.20;80.60;;;;;;4348866;32;20074;-60
2021/04/19 00:37:34;;;;;;;4.90;1.70;;;5.20;80.70;;;;;;4348288;32;20146;-59
2021/04/19 00:40:06;;;;;;;6.85;1.87;;;5.20;80.20;;;;;;4310964;32;20079;-60
2021/04/19 00:42:32;;;;;;;3.78;1.90;;;5.20;79.80;;;;;;4336759;32;20079;-58
2021/04/19 00:44:59;;;;;;;2.22;1.52;;;5.20;79.70;;;;;;4323056;32;20074;-59
2021/04/19 00:47:25;;;;;;;3.20;1.90;;;5.30;79.30;;;;;;4323218;32;20520;-59
2021/04/19 00:49:51;;;;;;;4.10;1.90;;;5.20;79.70;;;;;;4311565;32;20078;-59
2021/04/19 00:52:18;;;;;;;4.12;1.77;;;5.10;80.20;;;;;;4322865;32;20102;-59
2021/04/19 00:54:44;;;;;;;1.87;1.30;;;5.10;80.30;;;;;;4324769;32;20086;-59
2021/04/19 00:57:11;;;;;;;1.85;1.52;;;5.00;80.40;;;;;;4335327;32;20067;-59
2021/04/19 00:59:39;;;;;;;2.92;1.70;;;5.00;81.10;;;;;;4311108;32;20158;-60
2021/04/19 01:02:05;;;;;;;2.78;1.58;;;4.90;82.10;;;;;;4323636;32;20062;-60
2021/04/19 01:04:31;;;;;;;4.30;1.90;;;4.80;83.00;;;;;;4322816;32;20516;-59
2021/04/19 01:06:59;;;;;;;5.30;2.47;;;4.80;83.30;;;;;;4335208;32;20495;-61
2021/04/19 01:09:26;;;;;;;6.78;2.58;;;4.70;84.00;;;;;;4311592;32;20165;-59
2021/04/19 01:11:53;;;;;;;3.10;2.30;;;4.60;85.10;;;;;;4324507;32;20094;-60
2021/04/19 01:14:19;;;;;;;3.53;2.25;;;4.50;86.20;;;;;;4338590;32;20144;-60
2021/04/19 01:16:45;;;;;;;3.15;2.22;;;4.40;87.50;;;;;;4323247;32;20089;-60
2021/04/19 01:19:11;;;;;;;2.92;2.30;;;4.30;88.90;;;;;;4334760;32;20469;-61
2021/04/19 01:21:37;;;;;;;3.60;2.40;;;4.20;90.00;;;;;;4347316;32;20502;-60
2021/04/19 01:24:04;;;;;;;3.72;2.62;;;4.20;90.10;;;;;;4347257;32;20070;-60
2021/04/19 01:26:30;;;;;;;5.40;2.67;;;4.20;90.30;;;;;;4335660;32;20075;-60
2021/04/19 01:28:56;;;;;;;4.05;2.67;;;4.20;90.10;;;;;;4335595;32;20138;-59
2021/04/19 01:31:22;;;;;;;4.25;2.40;;;4.20;90.30;;;;;;4360812;32;20086;-59
2021/04/19 01:33:49;;;;;;;5.95;2.90;;;4.20;89.90;;;;;;4311980;32;20067;-59
2021/04/19 01:36:15;;;;;;;8.27;2.72;;;4.20;89.20;;;;;;4352570;32;20074;-59
2021/04/19 01:38:41;;;;;;;9.80;3.33;;;4.30;89.20;;;;;;4340615;32;20508;-59
2021/04/19 01:41:07;;;;;;;4.07;2.60;;;4.30;88.40;;;;;;4352613;32;20074;-60
2021/04/19 01:43:33;;;;;;;3.87;2.60;;;4.30;88.40;;;;;;4352514;32;20062;-60
2021/04/19 01:45:59;;;;;;;3.72;2.10;;;4.30;87.20;;;;;;4340813;32;20079;-59
2021/04/19 01:48:26;;;;;;;3.40;2.25;;;4.30;87.80;;;;;;4352695;32;20434;-59
2021/04/19 01:50:53;;;;;;;3.30;2.30;;;4.30;87.10;;;;;;4340076;32;21277;-59
2021/04/19 01:53:19;;;;;;;4.20;2.03;;;4.30;86.40;;;;;;4364848;32;20507;-59
2021/04/19 01:55:46;;;;;;;2.58;1.73;;;4.30;87.00;;;;;;4352358;32;20073;-59
2021/04/19 01:58:18;;;;;;;3.20;1.80;;;4.20;87.10;;;;;;4340378;32;20108;-59
2021/04/19 02:00:54;;;;;;;5.45;2.30;;;4.10;86.80;;;;;;4340720;32;20071;-60
2021/04/19 02:03:49;;;;;;;1.73;1.42;;;4.20;86.80;;;;;;4328750;32;20168;-59
2021/04/19 02:06:43;;;;;;;3.05;1.62;;;4.10;87.90;;;;;;4352230;32;20174;-59
2021/04/19 02:09:28;;;;;;;5.37;1.80;;;4.20;86.50;;;;;;4329441;32;20133;-59
2021/04/19 02:12:20;;;;;;;3.20;1.77;;;4.20;86.40;;;;;;4352953;32;20149;-59
2021/04/19 02:15:07;;;;;;;2.45;1.52;;;4.30;85.60;;;;;;4341071;32;20085;-59
2021/04/19 02:17:39;;;;;;;;;;;4.30;85.10;;;;;;4327727;32;20227;-59
2021/04/19 02:20:37;;;;;;;3.50;2.00;;;4.30;84.90;;;;;;4351871;32;19969;-59
2021/04/19 02:23:23;;;;;;;6.62;2.20;;;4.30;85.70;;;;;;4363809;32;20090;-60
2021/04/19 02:25:52;;;;;;;2.65;1.98;;;4.30;84.00;;;;;;4338529;32;20509;-60
2021/04/19 02:29:30;;;;;;;7.80;2.10;;;4.30;84.50;;;;;;4337479;32;20493;-60
2021/04/19 02:32:58;;;;;;;3.83;1.40;;;4.40;84.60;;;;;;4342094;32;20090;-60
2021/04/19 02:36:25;;;;;;;5.62;1.80;;;4.40;82.10;;;;;;4350400;32;20067;-60
2021/04/19 02:38:55;;;;;;;2.67;1.73;;;4.40;81.90;;;;;;4350007;32;20550;-60
2021/04/19 02:41:22;;;;;;;4.57;2.10;;;4.40;80.30;;;;;;4313226;32;20070;-59
2021/04/19 02:43:49;;;;;;;4.20;1.70;;;4.40;80.10;;;;;;4313193;32;20151;-60
2021/04/19 02:46:15;;;;;;;4.90;2.05;;;4.50;80.10;;;;;;4312811;32;20452;-59
2021/04/19 02:48:42;;;;;;;3.45;1.67;;;4.50;78.50;;;;;;4324997;32;20151;-60
2021/04/19 02:51:09;;;;;;;3.12;1.58;;;4.50;78.20;;;;;;4321984;33;20079;-59
2021/04/19 02:53:35;;;;;;;3.47;1.55;;;4.60;77.00;;;;;;4323358;33;20164;-60
2021/04/19 02:56:04;;;;;;;2.95;1.90;;;4.60;76.00;;;;;;4323710;33;20160;-62
2021/04/19 02:58:38;;;;;;;3.00;1.92;;;4.50;76.50;;;;;;4324857;33;20074;-60
2021/04/19 03:01:06;;;;;;;2.75;1.52;;;4.60;76.40;;;;;;4328257;33;20101;-60
2021/04/19 03:03:33;;;;;;;2.17;1.62;;;4.50;75.40;;;;;;4335280;33;20055;-60
2021/04/19 03:05:59;;;;;;;3.75;2.00;;;4.60;74.50;;;;;;4322074;33;20103;-58
2021/04/19 03:08:28;;;;;;;7.57;1.80;;;4.60;73.50;;;;;;4334281;33;20443;-59
2021/04/19 03:11:13;;;;;;;8.45;2.03;;;4.60;73.30;;;;;;4309963;33;20441;-59
2021/04/19 03:13:39;;;;;;;2.85;1.55;;;4.70;72.80;;;;;;4334420;33;20063;-59
2021/04/19 03:16:06;;;;;;;5.37;1.98;;;4.60;72.30;;;;;;4322193;33;20075;-62
2021/04/19 03:18:37;;;;;;;5.78;1.77;;;4.80;71.40;;;;;;4311430;33;20159;-60
2021/04/19 03:21:22;;;;;;;7.82;2.10;;;4.70;71.10;;;;;;4314386;33;20090;-59
2021/04/19 03:23:57;;;;;;;6.78;2.03;;;4.80;70.60;;;;;;4325031;33;20452;-60
2021/04/19 03:26:27;;;;;;;2.95;1.90;;;4.80;69.60;;;;;;4310767;33;20143;-61
2021/04/19 03:28:53;;;;;;;4.47;2.30;;;4.70;70.00;;;;;;4310395;33;20082;-59
2021/04/19 03:31:31;;;;;;;4.82;1.52;;;4.90;69.10;;;;;;4309339;33;20067;-59
2021/04/19 03:34:01;;;;;;;10.10;2.40;;;5.00;68.00;;;;;;4312089;32;20086;-60
2021/04/19 03:36:28;;;;;;;3.50;1.77;;;4.80;67.90;;;;;;4349093;32;20418;-59
2021/04/19 03:38:54;;;;;;;4.00;2.05;;;5.00;67.10;;;;;;4349241;32;20078;-59
2021/04/19 03:41:20;;;;;;;4.35;1.87;;;5.00;66.40;;;;;;4336718;32;20077;-60
2021/04/19 03:44:00;;;;;;;9.38;2.42;;;5.10;65.40;;;;;;4349355;32;20167;-59
2021/04/19 03:46:26;;;;;;;4.30;1.98;;;5.00;66.20;;;;;;4349910;32;20158;-60
2021/04/19 03:48:59;;;;;;;3.58;2.12;;;5.00;65.50;;;;;;4348069;32;20509;-59
2021/04/19 03:51:25;;;;;;;4.12;1.98;;;5.20;65.30;;;;;;4336003;32;20167;-61
2021/04/19 03:53:56;;;;;;;5.07;1.90;;;5.30;64.00;;;;;;4336109;32;20078;-59
2021/04/19 03:56:23;;;;;;;4.12;2.28;;;5.40;63.70;;;;;;4335758;32;20074;-59
2021/04/19 03:58:49;;;;;;;7.90;2.65;;;5.30;63.00;;;;;;4360894;32;20069;-60
2021/04/19 04:01:15;;;;;;;3.08;1.87;;;5.50;63.10;;;;;;4335914;32;20069;-59
2021/04/19 04:03:42;;;;;;;3.50;2.28;;;5.60;61.50;;;;;;4324011;32;20512;-60
2021/04/19 04:06:09;;;;;;;8.02;2.50;;;5.60;61.10;;;;;;4348019;32;20429;-61
2021/04/19 04:08:35;;;;;;;4.35;1.87;;;5.60;61.10;;;;;;4324021;32;20089;-59
2021/04/19 04:11:01;;;;;;;4.30;2.30;;;5.80;60.30;;;;;;4348050;32;20494;-59
2021/04/19 04:13:29;;;;;;;5.12;2.90;;;5.60;60.60;;;;;;4345267;33;20080;-59
2021/04/19 04:15:57;;;;;;;2.12;1.65;;;5.90;60.40;;;;;;4333407;33;20159;-60
2021/04/19 04:18:23;;;;;;;5.62;2.75;;;5.90;59.00;;;;;;4321598;33;20078;-60
2021/04/19 04:20:50;;;;;;;3.78;1.60;;;5.90;59.10;;;;;;4321031;33;20472;-59
2021/04/19 04:23:17;;;;;;;4.00;1.80;;;6.00;58.70;;;;;;4309506;33;20070;-60
2021/04/19 04:25:44;;;;;;;6.95;2.08;;;6.20;56.80;;;;;;4309443;33;20078;-59
2021/04/19 04:28:10;;;;;;;4.53;1.35;;;6.30;55.40;;;;;;4297072;33;20171;-60
2021/04/19 04:30:36;;;;;;;4.68;2.03;;;6.30;55.30;;;;;;4321073;33;20077;-59
2021/04/19 04:33:06;;;;;;;2.40;1.55;;;6.50;54.60;;;;;;4332955;33;20079;-61
2021/04/19 04:35:33;;;;;;;3.08;1.70;;;6.50;53.30;;;;;;4326244;32;20102;-59
2021/04/19 04:38:00;;;;;;;5.03;2.20;;;6.50;53.60;;;;;;4335593;32;20077;-60
2021/04/19 04:40:27;;;;;;;4.37;1.80;;;6.90;53.00;;;;;;4347821;32;20516;-60
2021/04/19 04:43:10;;;;;;;6.65;2.08;;;6.80;52.40;;;;;;4324194;32;20066;-60
2021/04/19 04:45:37;;;;;;;8.75;2.60;;;6.80;52.00;;;;;;4326153;32;20063;-59
2021/04/19 04:48:27;;;;;;;3.30;2.12;;;6.90;50.80;;;;;;4348299;32;20082;-60
2021/04/19 04:51:03;;;;;;;4.28;1.60;;;7.40;49.70;;;;;;4337795;32;20149;-60
2021/04/19 04:53:43;;;;;;;4.20;2.22;;;7.70;47.40;;;;;;4314362;32;20166;-60
2021/04/19 04:56:11;;;;;;;3.58;1.83;;;7.50;47.50;;;;;;4339558;32;20083;-59
2021/04/19 04:58:37;;;;;;;3.95;2.00;;;7.70;47.50;;;;;;4338704;32;20070;-60
2021/04/19 05:01:05;;;;;;;2.50;1.27;;;7.90;48.10;;;;;;4338074;32;20069;-59
2021/04/19 05:03:31;;;;;;;3.95;2.65;;;7.80;47.10;;;;;;4338079;32;20086;-58
2021/04/19 05:05:57;;;;;;;6.28;2.20;;;7.40;48.20;;;;;;4337859;32;20183;-60
2021/04/19 05:08:25;;;;;;;2.83;1.60;;;7.40;48.50;;;;;;4351644;32;20086;-59
2021/04/19 05:10:51;;;;;;;5.47;1.95;;;7.50;49.00;;;;;;4341388;32;20082;-60
2021/04/19 05:13:17;;;;;;;4.82;2.28;;;7.50;48.30;;;;;;4338796;32;20071;-59
2021/04/19 05:15:45;;;;;;;2.75;1.90;;;7.40;48.70;;;;;;4339039;32;20092;-59
2021/04/19 05:18:15;;;;;;;6.30;2.00;;;7.50;48.90;;;;;;4338374;32;20082;-60
2021/04/19 05:20:42;;;;;;;4.68;1.95;;;7.40;48.00;;;;;;4339417;32;20059;-60
2021/04/19 05:23:09;;;;;;;5.32;2.03;;;7.90;48.90;;;;;;4326809;32;20089;-59
2021/04/19 05:25:35;;;;;;;8.10;2.60;;;7.40;49.10;;;;;;4340852;32;20073;-59
2021/04/19 05:28:02;;;;;;;6.07;2.30;;;7.40;49.50;;;;;;4341627;32;20075;-59
2021/04/19 05:30:29;;;;;;;3.72;1.95;;;8.00;47.50;;;;;;4328910;32;20135;-59
2021/04/19 05:32:57;;;;;;;11.25;2.17;;;7.60;47.40;;;;;;4338596;32;20167;-60
2021/04/19 05:35:23;;;;;;;2.65;1.12;;;7.90;47.30;;;;;;4325743;32;20468;-58
2021/04/19 05:37:59;;;;;;;6.03;2.33;;;7.50;47.60;;;;;;4314115;32;20096;-58
2021/04/19 05:40:28;;;;;;;5.80;2.17;;;7.60;48.00;;;;;;4326170;32;20085;-58
2021/04/19 05:42:55;;;;;;;4.10;2.10;;;7.80;48.10;;;;;;4350795;32;20508;-61
2021/04/19 05:45:21;;;;;;;2.15;1.87;;;7.80;48.20;;;;;;4326820;32;20105;-59
2021/04/19 05:47:51;;;;;;;5.18;1.55;;;8.00;48.30;;;;;;4316437;32;20094;-60
2021/04/19 05:50:23;;;;;;;5.93;2.20;;;7.80;47.30;;;;;;4337903;32;20074;-58
2021/04/19 05:52:55;;;;;;;2.70;1.77;;;8.10;47.50;;;;;;4314207;32;20071;-59
2021/04/19 05:55:26;;;;;;;6.00;2.00;;;8.70;45.60;;;;;;4313955;32;20086;-60
2021/04/19 05:58:09;;;;;;;5.95;2.03;;;9.20;43.80;;;;;;4337326;32;20097;-59
2021/04/19 06:01:06;;;;;;;5.97;2.03;;;8.80;45.00;;;;;;4338829;32;20066;-59
2021/04/19 06:03:43;;;;;;;5.82;2.30;;;9.30;44.20;;;;;;4350241;32;20529;-59
2021/04/19 06:06:15;;;;;;;3.45;2.17;;;8.60;45.10;;;;;;4340450;32;20476;-63
2021/04/19 06:09:13;;;;;;;4.93;2.30;;;8.60;45.60;;;;;;4344509;32;20402;-58
2021/04/19 06:12:01;;;;;;;4.65;2.15;;;8.50;44.60;;;;;;4362780;32;20117;-60
2021/04/19 06:14:31;;;;;;;8.32;3.40;;;8.80;45.20;;;;;;4351810;32;20159;-60
2021/04/19 06:17:00;;;;;;;4.82;2.75;;;8.30;45.40;;;;;;4346613;32;20086;-57
2021/04/19 06:19:26;;;;;;;6.05;2.70;;;8.20;45.90;;;;;;4346538;32;20093;-59
2021/04/19 06:21:53;;;;;;;4.90;2.45;;;8.10;45.90;;;;;;4328880;32;20175;-59
2021/04/19 06:24:19;;;;;;;5.25;2.83;;;8.50;45.50;;;;;;4324584;32;20062;-58
2021/04/19 06:26:45;;;;;;;6.35;2.60;;;8.10;45.60;;;;;;4324479;32;20061;-58
2021/04/19 06:29:13;;;;;;;8.25;2.83;;;8.50;45.00;;;;;;4354978;32;20077;-59
2021/04/19 06:31:51;;;;;;;12.45;3.30;;;8.70;45.10;;;;;;4335859;32;20598;-59
2021/04/19 06:34:18;;;;;;;6.53;3.05;;;8.70;44.90;;;;;;4335929;32;20513;-59
2021/04/19 06:36:47;;;;;;;9.05;2.42;;;8.70;45.50;;;;;;4329488;32;20148;-60
2021/04/19 06:39:15;;;;;;;7.00;2.60;;;8.80;44.30;;;;;;4331789;32;20078;-57
2021/04/19 06:41:41;;;;;;;8.45;2.20;;;8.80;43.90;;;;;;4344058;32;20073;-59
2021/04/19 06:44:08;;;;;;;3.25;1.83;;;9.40;43.80;;;;;;4336481;32;20088;-58
2021/04/19 06:46:37;;;;;;;7.12;3.53;;;9.40;44.20;;;;;;4349497;32;20146;-58
2021/04/19 06:49:04;;;;;;;7.18;2.55;;;9.10;44.50;;;;;;4349294;32;20080;-61
2021/04/19 06:51:31;;;;;;;6.15;2.78;;;9.30;43.50;;;;;;4324636;33;20160;-61
2021/04/19 06:53:58;;;;;;;6.72;2.40;;;9.30;44.10;;;;;;4316623;33;20475;-60
2021/04/19 06:56:27;;;;;;;10.48;3.25;;;9.00;44.30;;;;;;4343128;33;20077;-59
2021/04/19 06:58:55;;;;;;;5.00;2.50;;;8.90;44.20;;;;;;4336256;33;20081;-59
2021/04/19 07:01:24;;;;;;;9.00;2.50;;;8.90;43.90;;;;;;4343396;32;20192;-59
2021/04/19 07:04:08;;;;;;;5.22;2.22;;;9.30;43.80;;;;;;4335371;32;20079;-61
2021/04/19 07:06:35;;;;;;;5.18;2.53;;;9.60;43.40;;;;;;4336595;32;20079;-59
2021/04/19 07:09:26;;;;;;;5.53;2.62;;;9.20;43.70;;;;;;4331029;33;20075;-58
2021/04/19 07:12:03;;;;;;;5.28;2.53;;;8.90;43.60;;;;;;4328814;33;20111;-58
2021/04/19 07:14:31;;;;;;;7.32;3.30;;;9.70;43.40;;;;;;4339493;32;20066;-59
2021/04/19 07:16:57;;;;;;;9.25;2.62;;;9.20;43.00;;;;;;4332871;33;20150;-59
2021/04/19 07:19:23;;;;;;;4.03;1.90;;;9.30;43.60;;;;;;4333877;33;20187;-59
2021/04/19 07:21:50;;;;;;;4.80;2.15;;;9.70;42.90;;;;;;4341515;33;20086;-61
2021/04/19 07:24:17;;;;;;;10.43;2.58;;;10.10;42.10;;;;;;4306460;33;20063;-60
2021/04/19 07:26:43;;;;;;;8.75;2.50;;;9.80;41.90;;;;;;4314060;33;20108;-60
2021/04/19 07:29:10;;;;;;;4.20;2.40;;;9.60;43.00;;;;;;4342439;33;20583;-60
2021/04/19 07:31:56;;;;;;;4.80;2.08;;;9.40;43.10;;;;;;4325425;33;20114;-58
2021/04/19 07:34:27;;;;;;;11.68;3.40;;;10.10;42.40;;;;;;4332892;32;20455;-59
2021/04/19 07:37:02;;;;;;;11.55;3.12;;;9.70;42.90;;;;;;4332951;33;20144;-59
2021/04/19 07:39:36;;;;;;;5.22;1.00;;;9.70;43.10;;;;;;4329669;33;20071;-59
2021/04/19 07:42:08;;;;;;;7.45;2.05;;;9.80;42.60;;;;;;4339721;33;20104;-60
2021/04/19 07:44:51;;;;;;;3.58;2.00;;;10.20;41.60;;;;;;4337121;33;20086;-62
2021/04/19 07:47:42;;;;;;;5.57;2.78;;;10.20;41.20;;;;;;4343142;33;20608;-60
2021/04/19 07:50:22;;;;;;;1.23;0.70;;;9.90;42.70;;;;;;4332248;32;20525;-60
2021/04/19 07:53:00;;;;;;;10.00;2.20;;;9.90;42.00;;;;;;4344643;33;20485;-58
2021/04/19 07:55:34;;;;;;;5.35;2.33;;;9.90;42.60;;;;;;4332669;33;20153;-58
2021/04/19 07:58:01;;;;;;;5.22;2.30;;;9.70;42.50;;;;;;4333748;33;20054;-58
2021/04/19 08:00:35;;;;;;;3.83;2.20;;;10.40;41.40;;;;;;4333283;33;20079;-58
2021/04/19 08:03:15;;;;;;;5.97;3.00;;;10.20;40.60;;;;;;4333780;32;20102;-57
2021/04/19 08:05:50;;;;;;;6.80;2.67;;;9.90;42.30;;;;;;4333169;33;20094;-58
2021/04/19 08:08:38;;;;;;;6.35;2.80;;;9.70;41.40;;;;;;4333212;33;20184;-58
2021/04/19 08:11:12;;;;;;;10.50;2.83;;;10.10;41.80;;;;;;4322867;33;20151;-58
2021/04/19 08:13:39;;;;;;;8.57;3.22;;;10.30;42.20;;;;;;4325642;32;20165;-59
2021/04/19 08:16:26;;;;;;;4.85;1.80;;;10.50;40.80;;;;;;4349184;32;20088;-62
2021/04/19 08:19:02;;;;;;;;;;;10.50;40.20;;;;;;4348832;32;20063;-58
2021/04/19 08:21:29;;;;;;;11.48;3.58;;;10.00;40.60;;;;;;4347858;32;19989;-57
2021/04/19 08:23:55;;;;;;;7.95;2.47;;;9.90;42.20;;;;;;4347884;32;20070;-58
2021/04/19 08:26:21;;;;;;;7.10;2.53;;;10.30;41.70;;;;;;4348111;32;20481;-58
2021/04/19 08:28:49;;;;;;;4.07;2.45;;;10.50;41.10;;;;;;4347536;32;20149;-58
2021/04/19 08:31:16;;;;;;;3.50;2.15;;;10.30;41.40;;;;;;4347806;32;20096;-57
2021/04/19 08:33:43;;;;;;;6.85;2.87;;;10.40;42.00;;;;;;4348220;32;20086;-58
2021/04/19 08:36:11;;;;;;;8.77;2.75;;;10.30;42.40;;;;;;4308779;33;20167;-57
2021/04/19 08:38:37;;;;;;;4.28;3.15;;;10.50;42.30;;;;;;4333468;33;20593;-57
2021/04/19 08:41:04;;;;;;;3.47;2.00;;;10.40;41.40;;;;;;4333366;33;20079;-60
2021/04/19 08:43:34;;;;;;;6.00;2.75;;;10.80;40.70;;;;;;4320405;33;20681;-58
2021/04/19 08:46:01;;;;;;;4.00;2.42;;;10.50;41.00;;;;;;4330349;32;20078;-54
2021/04/19 08:48:28;;;;;;;5.90;2.60;;;10.40;41.20;;;;;;4360899;32;20152;-55
2021/04/19 08:50:54;;;;;;;7.87;3.40;;;10.70;42.00;;;;;;4323730;32;20501;-55
2021/04/19 08:53:21;;;;;;;8.85;3.40;;;10.60;41.30;;;;;;4359942;32;20086;-55
2021/04/19 08:55:49;;;;;;;8.55;3.55;;;10.50;41.90;;;;;;4339445;32;20147;-57
2021/04/19 08:58:17;;;;;;;10.30;3.37;;;10.90;40.40;;;;;;4322812;32;20058;-56
2021/04/19 09:00:48;;;;;;;8.40;3.35;;;11.10;41.60;;;;;;4334715;32;20124;-56
2021/04/19 09:03:19;;;;;;;6.12;3.22;;;11.00;40.20;;;;;;4331210;32;20070;-56
2021/04/19 09:05:46;;;;;;;8.88;3.37;;;10.90;41.20;;;;;;4368739;32;20066;-56
2021/04/19 09:08:15;;;;;;;6.07;3.10;;;11.30;40.50;;;;;;4326381;32;20532;-57
2021/04/19 09:10:55;;;;;;;6.87;3.10;;;10.80;40.00;;;;;;4319836;32;20090;-58
2021/04/19 09:13:39;;;;;;;6.90;3.22;;;10.80;40.30;;;;;;4356622;32;20167;-59
2021/04/19 09:16:18;;;;;;;7.53;3.45;;;11.00;40.10;;;;;;4335447;32;20303;-58
2021/04/19 09:19:06;;;;;;;4.55;2.80;;;11.50;39.80;;;;;;4354426;32;20071;-58
2021/04/19 09:21:38;;;;;;;3.30;1.33;;;11.70;39.50;;;;;;4338047;32;20058;-58
2021/04/19 09:24:09;;;;;;;11.80;3.50;;;11.30;39.90;;;;;;4333389;32;20070;-57
2021/04/19 09:26:52;;;;;;;5.45;3.00;;;11.40;39.80;;;;;;4348562;32;20468;-55
2021/04/19 09:29:28;;;;;;;5.10;3.08;;;11.70;39.60;;;;;;4339083;32;20069;-57
2021/04/19 09:32:07;;;;;;;7.05;3.35;;;11.80;39.20;;;;;;4362941;32;20108;-58
2021/04/19 09:34:53;;;;;;;24.60;5.05;;;11.80;38.00;;;;;;4343546;32;20231;-56
2021/04/19 09:37:43;;;;;;;10.25;3.47;;;11.80;39.20;;;;;;4346146;32;20140;-58
2021/04/19 09:40:21;;;;;;;10.63;4.07;;;12.20;38.50;;;;;;4351284;32;20230;-57
2021/04/19 09:43:06;;;;;;;8.60;4.65;;;11.80;38.80;;;;;;4318590;32;20069;-58
2021/04/19 09:45:48;;;;;;;14.40;4.40;;;12.00;39.30;;;;;;4354386;32;20577;-58
2021/04/19 09:48:38;;;;;;;10.02;4.47;;;12.30;38.40;;;;;;4352246;32;20105;-61
2021/04/19 09:51:18;;;;;;;9.30;4.32;;;12.20;38.00;;;;;;4352088;32;20494;-59
2021/04/19 09:54:05;;;;;;;9.95;4.53;;;11.90;37.70;;;;;;4357447;32;20452;-60
2021/04/19 09:56:45;;;;;;;8.75;4.15;;;11.80;39.20;;;;;;4333232;32;20069;-58
2021/04/19 09:59:25;;;;;;;10.38;4.03;;;12.40;38.10;;;;;;4338396;32;20077;-60
2021/04/19 10:01:54;;;;;;;12.60;4.20;;;12.10;38.10;;;;;;4322080;32;20200;-60
2021/04/19 10:04:20;;;;;;;15.70;5.12;;;12.40;37.70;;;;;;4355688;32;20051;-55
2021/04/19 10:06:56;;;;;;;11.98;5.60;;;12.60;38.10;;;;;;4342670;32;20094;-56
2021/04/19 10:09:27;;;;;;;6.93;4.50;;;11.90;38.10;;;;;;4345134;32;21749;-58
2021/04/19 10:11:59;;;;;;;10.93;5.18;;;13.10;37.40;;;;;;4344717;32;20099;-60
2021/04/19 10:14:26;;;;;;;10.48;5.10;;;13.10;38.20;;;;;;4342488;32;20110;-59
2021/04/19 10:16:52;;;;;;;9.40;4.82;;;12.90;37.20;;;;;;4354638;32;20082;-57
2021/04/19 10:19:29;;;;;;;7.32;4.15;;;12.90;36.60;;;;;;4355590;32;20101;-56
2021/04/19 10:22:00;;;;;;;11.35;4.80;;;12.90;36.40;;;;;;4356050;32;20198;-60
2021/04/19 10:24:26;;;;;;;11.05;4.35;;;12.60;36.20;;;;;;4333408;32;20086;-56
2021/04/19 10:26:52;;;;;;;16.42;5.03;;;12.70;37.90;;;;;;4343859;32;20058;-56
2021/04/19 10:29:20;;;;;;;11.60;4.12;;;12.90;36.90;;;;;;4360512;32;20082;-57
2021/04/19 10:31:53;;;;;;;7.55;3.80;;;12.50;36.20;;;;;;4354453;32;20169;-55
2021/04/19 10:34:25;;;;;;;5.85;3.80;;;12.90;36.40;;;;;;4344977;32;20117;-60
2021/04/19 10:36:56;;;;;;;8.13;3.35;;;13.50;35.50;;;;;;4346553;32;20089;-57
2021/04/19 10:39:25;;;;;;;8.75;3.47;;;13.10;35.60;;;;;;4347506;32;20069;-58
2021/04/19 10:41:54;;;;;;;46.78;7.30;;;13.00;35.90;;;;;;4344163;32;20077;-59
2021/04/19 10:44:42;;;;;;;10.45;4.32;;;12.80;37.50;;;;;;4349164;32;20078;-58
2021/04/19 10:47:13;;;;;;;10.23;4.55;;;12.90;37.60;;;;;;4349762;32;20175;-58
2021/04/19 10:49:40;;;;;;;9.65;4.57;;;12.40;36.60;;;;;;4363690;32;20067;-58
2021/04/19 10:52:10;;;;;;;11.40;4.55;;;12.60;36.40;;;;;;4357365;32;20069;-57
2021/04/19 10:54:43;;;;;;;6.82;3.70;;;12.70;37.40;;;;;;4348410;32;20594;-57
2021/04/19 10:57:40;;;;;;;9.60;4.60;;;13.50;36.30;;;;;;4338149;32;20070;-57
2021/04/19 11:00:10;;;;;;;16.42;4.22;;;12.90;37.20;;;;;;4358640;32;20545;-56
2021/04/19 11:02:36;;;;;;;11.57;3.60;;;12.80;36.80;;;;;;4341936;32;20186;-57
2021/04/19 11:05:02;;;;;;;14.45;4.47;;;13.40;35.80;;;;;;4335526;32;20078;-57
2021/04/19 11:07:31;;;;;;;16.52;4.80;;;12.50;35.60;;;;;;4334753;32;20501;-58
2021/04/19 11:11:04;;;;;;;9.95;4.18;;;12.30;36.70;;;;;;4345315;32;20098;-58
2021/04/19 11:17:50;;;;;;;10.75;4.07;;;12.60;36.40;;;;;;3774868;37;20271;-58
2021/04/19 11:20:25;;;;;;;8.25;4.00;;;12.40;36.70;;;;;;4364318;32;20497;-56
2021/04/19 11:22:51;;;;;;;11.32;3.17;;;12.70;36.90;;;;;;4358623;32;20097;-57
2021/04/19 11:25:25;;;;;;;6.85;3.28;;;12.40;36.70;;;;;;4356323;32;20506;-55
2021/04/19 11:28:03;;;;;;;7.82;3.45;;;12.60;36.00;;;;;;4350400;32;20110;-56
2021/04/19 11:30:31;;;;;;;6.93;3.12;;;12.70;36.00;;;;;;4338905;32;20513;-57
2021/04/19 11:33:08;;;;;;;9.00;3.35;;;12.70;35.80;;;;;;4347577;32;20153;-58
2021/04/19 11:35:46;;;;;;;5.80;2.90;;;12.80;36.40;;;;;;4352645;32;20200;-57
2021/04/19 11:38:23;;;;;;;7.45;3.40;;;12.60;36.30;;;;;;4326905;32;20501;-57
2021/04/19 11:41:03;;;;;;;5.32;2.85;;;13.00;36.20;;;;;;4341273;32;20078;-54
2021/04/19 11:43:33;;;;;;;6.28;2.87;;;12.20;36.40;;;;;;4338910;32;20082;-56
2021/04/19 11:46:12;;;;;;;7.07;3.20;;;13.00;36.70;;;;;;4351259;32;20230;-57
2021/04/19 11:48:44;;;;;;;7.30;3.15;;;13.10;35.30;;;;;;4340837;32;20075;-56
2021/04/19 11:51:11;;;;;;;7.18;3.80;;;12.90;35.40;;;;;;4335657;32;20104;-55
2021/04/19 11:53:39;;;;;;;7.87;3.28;;;12.80;36.00;;;;;;4321575;32;20117;-57
2021/04/19 11:56:06;;;;;;;7.62;2.75;;;12.80;36.10;;;;;;4334333;32;20093;-57
2021/04/19 11:58:35;;;;;;;6.65;3.08;;;12.80;37.00;;;;;;4315397;32;20081;-57
2021/04/19 12:01:01;;;;;;;6.70;3.47;;;12.60;35.60;;;;;;4338720;32;20105;-59
2021/04/19 12:03:27;;;;;;;5.10;3.33;;;12.80;36.60;;;;;;4337558;32;20063;-61
2021/04/19 12:05:54;;;;;;;15.43;3.30;;;12.50;36.50;;;;;;4350320;32;20067;-60
2021/04/19 12:08:21;;;;;;;6.07;2.70;;;12.50;36.80;;;;;;4353553;32;20445;-56
2021/04/19 12:10:47;;;;;;;8.05;3.65;;;12.70;36.40;;;;;;4362544;32;20078;-57
2021/04/19 12:13:14;;;;;;;9.05;3.40;;;12.40;36.30;;;;;;4358762;32;20164;-55
2021/04/19 12:15:44;;;;;;;7.03;2.67;;;12.70;36.50;;;;;;4350124;32;20109;-55
2021/04/19 12:18:11;;;;;;;5.45;2.50;;;12.60;36.20;;;;;;4350049;32;20138;-56
2021/04/19 12:20:38;;;;;;;10.35;4.75;;;12.80;36.30;;;;;;4345754;32;20113;-57
2021/04/19 12:23:07;;;;;;;6.85;3.25;;;13.00;36.10;;;;;;4341655;32;20082;-58
2021/04/19 12:25:34;;;;;;;6.68;2.95;;;12.50;35.60;;;;;;4316204;32;20078;-62
2021/04/19 12:28:00;;;;;;;8.05;2.90;;;12.70;35.80;;;;;;4336520;32;20098;-61
2021/04/19 12:30:28;;;;;;;6.85;2.97;;;12.60;36.80;;;;;;4333622;32;20161;-61
2021/04/19 12:32:54;;;;;;;5.28;2.72;;;12.70;36.40;;;;;;4316932;32;20506;-62
2021/04/19 12:35:21;;;;;;;5.90;2.67;;;12.60;36.60;;;;;;4327742;32;20178;-62
2021/04/19 12:37:48;;;;;;;4.95;2.90;;;12.70;35.80;;;;;;4332670;33;20418;-59
2021/04/19 12:40:15;;;;;;;4.90;3.05;;;12.60;35.90;;;;;;4331215;33;20094;-62
2021/04/19 12:42:41;;;;;;;6.53;2.35;;;12.50;36.10;;;;;;4329661;32;20067;-61
2021/04/19 12:45:08;;;;;;;7.10;2.60;;;12.60;36.40;;;;;;4336006;32;20087;-59
2021/04/19 12:47:35;;;;;;;5.10;2.78;;;12.40;35.90;;;;;;4320232;33;20094;-59
2021/04/19 12:50:02;;;;;;;7.72;3.08;;;12.60;35.70;;;;;;4317319;33;20117;-61
2021/04/19 12:52:28;;;;;;;7.10;2.97;;;12.70;35.60;;;;;;4312440;33;20238;-58
2021/04/19 12:54:54;;;;;;;6.97;3.08;;;12.60;35.70;;;;;;4324027;32;20442;-60
2021/04/19 12:57:21;;;;;;;9.65;2.70;;;12.80;35.70;;;;;;4333750;32;20449;-62
2021/04/19 12:59:47;;;;;;;9.50;3.60;;;12.80;36.50;;;;;;4327033;33;20090;-60
2021/04/19 13:02:13;;;;;;;8.57;2.90;;;12.80;36.30;;;;;;4313832;33;20087;-60
2021/04/19 13:04:39;;;;;;;3.50;2.05;;;12.80;36.00;;;;;;4311771;33;20130;-61
2021/04/19 13:07:06;;;;;;;6.65;2.47;;;12.50;36.20;;;;;;4336834;32;20110;-62
2021/04/19 13:09:34;;;;;;;8.60;3.03;;;12.50;36.30;;;;;;4317388;32;20086;-60
2021/04/19 13:12:04;;;;;;;7.70;3.17;;;12.70;36.30;;;;;;4338243;32;20115;-62
2021/04/19 13:14:30;;;;;;;7.07;2.92;;;12.50;36.50;;;;;;4299293;32;20087;-61
2021/04/19 13:16:56;;;;;;;6.25;2.72;;;12.50;36.40;;;;;;4332500;32;20075;-61
2021/04/19 13:19:22;;;;;;;4.25;2.37;;;12.60;36.60;;;;;;4310946;32;20101;-58